sensor_id;sensor_type;location;lat;lon;timestamp;pressure;altitude;pressure_sealevel;temperature;humidity
78383;BME280;67668;52.294;4.692;2023-03-16T00:02:19;101771.25;;;7.42;60.19
78383;BME280;67668;52.294;4.692;2023-03-16T00:04:44;101771.97;;;7.44;59.69
78383;BME280;67668;52.294;4.692;2023-03-16T00:07:12;101766.19;;;7.39;59.30
78383;BME280;67668;52.294;4.692;2023-03-16T00:09:39;101764.56;;;7.36;59.02
78383;BME280;67668;52.294;4.692;2023-03-16T00:12:12;101762.13;;;7.33;59.42
78383;BME280;67668;52.294;4.692;2023-03-16T00:14:41;101763.28;;;7.29;59.67
78383;BME280;67668;52.294;4.692;2023-03-16T00:17:09;101772.88;;;7.30;59.88
78383;BME280;67668;52.294;4.692;2023-03-16T00:19:44;101755.28;;;7.31;60.18
78383;BME280;67668;52.294;4.692;2023-03-16T00:22:14;101754.44;;;7.30;59.71
78383;BME280;67668;52.294;4.692;2023-03-16T00:24:40;101758.75;;;7.31;60.51
78383;BME280;67668;52.294;4.692;2023-03-16T00:27:08;101744.75;;;7.31;59.56
78383;BME280;67668;52.294;4.692;2023-03-16T00:29:48;101743.91;;;7.30;60.08
78383;BME280;67668;52.294;4.692;2023-03-16T00:32:18;101745.03;;;7.26;59.16
78383;BME280;67668;52.294;4.692;2023-03-16T00:34:45;101745.03;;;7.26;59.81
78383;BME280;67668;52.294;4.692;2023-03-16T00:37:12;101746.94;;;7.24;59.74
78383;BME280;67668;52.294;4.692;2023-03-16T00:39:40;101746.94;;;7.24;59.65
78383;BME280;67668;52.294;4.692;2023-03-16T00:42:06;101739.97;;;7.23;60.30
78383;BME280;67668;52.294;4.692;2023-03-16T00:44:32;101739.22;;;7.21;60.10
78383;BME280;67668;52.294;4.692;2023-03-16T00:46:57;101733.03;;;7.22;60.42
78383;BME280;67668;52.294;4.692;2023-03-16T00:49:22;101725.13;;;7.22;60.21
78383;BME280;67668;52.294;4.692;2023-03-16T00:51:48;101722.50;;;7.22;61.17
78383;BME280;67668;52.294;4.692;2023-03-16T00:54:13;101724.38;;;7.20;60.44
78383;BME280;67668;52.294;4.692;2023-03-16T00:56:38;101711.31;;;7.18;60.83
78383;BME280;67668;52.294;4.692;2023-03-16T00:59:04;101712.34;;;7.16;60.92
78383;BME280;67668;52.294;4.692;2023-03-16T01:04:05;101703.72;;;7.14;61.69
78383;BME280;67668;52.294;4.692;2023-03-16T01:06:31;101700.16;;;7.15;61.80
78383;BME280;67668;52.294;4.692;2023-03-16T01:08:56;101699.38;;;7.13;61.95
78383;BME280;67668;52.294;4.692;2023-03-16T01:11:22;101700.22;;;7.13;62.23
78383;BME280;67668;52.294;4.692;2023-03-16T01:13:48;101695.06;;;7.12;62.76
78383;BME280;67668;52.294;4.692;2023-03-16T01:16:15;101695.94;;;7.12;62.05
78383;BME280;67668;52.294;4.692;2023-03-16T01:18:42;101696.75;;;7.13;62.80
78383;BME280;67668;52.294;4.692;2023-03-16T01:21:08;101697.59;;;7.13;62.74
78383;BME280;67668;52.294;4.692;2023-03-16T01:23:37;101688.13;;;7.11;62.53
78383;BME280;67668;52.294;4.692;2023-03-16T01:26:03;101673.25;;;7.10;63.42
78383;BME280;67668;52.294;4.692;2023-03-16T01:28:30;101668.97;;;7.09;62.78
78383;BME280;67668;52.294;4.692;2023-03-16T01:31:05;101668.19;;;7.07;63.40
78383;BME280;67668;52.294;4.692;2023-03-16T01:33:31;101677.06;;;7.06;63.75
78383;BME280;67668;52.294;4.692;2023-03-16T01:36:03;101661.34;;;7.04;63.46
78383;BME280;67668;52.294;4.692;2023-03-16T01:38:30;101656.38;;;7.00;63.39
78383;BME280;67668;52.294;4.692;2023-03-16T01:40:55;101641.75;;;6.96;64.11
78383;BME280;67668;52.294;4.692;2023-03-16T01:43:22;101645.19;;;6.96;63.62
78383;BME280;67668;52.294;4.692;2023-03-16T01:48:32;101630.78;;;6.89;63.22
78383;BME280;67668;52.294;4.692;2023-03-16T01:51:19;101631.59;;;6.90;64.05
78383;BME280;67668;52.294;4.692;2023-03-16T01:53:56;101625.50;;;6.89;63.75
78383;BME280;67668;52.294;4.692;2023-03-16T01:56:26;101626.44;;;6.88;63.95
78383;BME280;67668;52.294;4.692;2023-03-16T01:58:54;101626.53;;;6.87;64.07
78383;BME280;67668;52.294;4.692;2023-03-16T02:01:27;101617.69;;;6.88;65.03
78383;BME280;67668;52.294;4.692;2023-03-16T02:04:01;101622.97;;;6.88;64.48
78383;BME280;67668;52.294;4.692;2023-03-16T02:06:30;101618.53;;;6.88;64.23
78383;BME280;67668;52.294;4.692;2023-03-16T02:08:56;101609.06;;;6.86;64.75
78383;BME280;67668;52.294;4.692;2023-03-16T02:11:23;101608.97;;;6.87;64.67
78383;BME280;67668;52.294;4.692;2023-03-16T02:13:50;101610.66;;;6.88;65.19
78383;BME280;67668;52.294;4.692;2023-03-16T02:16:18;101606.44;;;6.86;64.90
78383;BME280;67668;52.294;4.692;2023-03-16T02:18:45;101605.59;;;6.85;65.67
78383;BME280;67668;52.294;4.692;2023-03-16T02:23:42;101602.84;;;6.87;65.95
78383;BME280;67668;52.294;4.692;2023-03-16T02:31:18;101604.81;;;6.83;65.91
78383;BME280;67668;52.294;4.692;2023-03-16T02:33:46;101587.25;;;6.84;66.08
78383;BME280;67668;52.294;4.692;2023-03-16T02:36:13;101602.13;;;6.85;65.78
78383;BME280;67668;52.294;4.692;2023-03-16T02:38:38;101600.34;;;6.85;66.38
78383;BME280;67668;52.294;4.692;2023-03-16T02:41:13;101592.53;;;6.84;66.42
78383;BME280;67668;52.294;4.692;2023-03-16T02:43:47;101590.00;;;6.82;66.11
78383;BME280;67668;52.294;4.692;2023-03-16T02:46:16;101593.50;;;6.83;66.87
78383;BME280;67668;52.294;4.692;2023-03-16T02:48:50;101596.13;;;6.83;67.02
78383;BME280;67668;52.294;4.692;2023-03-16T02:51:17;101600.41;;;6.84;66.83
78383;BME280;67668;52.294;4.692;2023-03-16T02:53:42;101588.22;;;6.83;66.54
78383;BME280;67668;52.294;4.692;2023-03-16T02:56:07;101593.50;;;6.83;67.12
78383;BME280;67668;52.294;4.692;2023-03-16T02:58:33;101588.22;;;6.83;67.12
78383;BME280;67668;52.294;4.692;2023-03-16T03:00:58;101584.75;;;6.82;67.15
78383;BME280;67668;52.294;4.692;2023-03-16T03:03:24;101587.38;;;6.82;67.02
78383;BME280;67668;52.294;4.692;2023-03-16T03:05:49;101589.03;;;6.83;67.53
78383;BME280;67668;52.294;4.692;2023-03-16T03:08:15;101585.59;;;6.83;67.18
78383;BME280;67668;52.294;4.692;2023-03-16T03:10:40;101580.34;;;6.83;67.11
78383;BME280;67668;52.294;4.692;2023-03-16T03:13:06;101579.38;;;6.84;67.65
78383;BME280;67668;52.294;4.692;2023-03-16T03:15:34;101572.53;;;6.81;67.87
78383;BME280;67668;52.294;4.692;2023-03-16T03:18:00;101569.03;;;6.81;68.13
78383;BME280;67668;52.294;4.692;2023-03-16T03:20:25;101573.38;;;6.82;67.82
78383;BME280;67668;52.294;4.692;2023-03-16T03:22:51;101563.78;;;6.81;67.93
78383;BME280;67668;52.294;4.692;2023-03-16T03:25:20;101562.94;;;6.80;67.91
78383;BME280;67668;52.294;4.692;2023-03-16T03:27:48;101558.53;;;6.81;68.22
78383;BME280;67668;52.294;4.692;2023-03-16T03:30:19;101562.00;;;6.81;68.42
78383;BME280;67668;52.294;4.692;2023-03-16T03:32:45;101550.63;;;6.81;68.27
78383;BME280;67668;52.294;4.692;2023-03-16T03:35:12;101551.69;;;6.78;68.51
78383;BME280;67668;52.294;4.692;2023-03-16T03:37:39;101552.53;;;6.79;68.77
78383;BME280;67668;52.294;4.692;2023-03-16T03:40:06;101553.38;;;6.79;69.15
78383;BME280;67668;52.294;4.692;2023-03-16T03:42:32;101546.50;;;6.76;69.43
78383;BME280;67668;52.294;4.692;2023-03-16T03:44:57;101548.19;;;6.78;69.77
78383;BME280;67668;52.294;4.692;2023-03-16T03:47:22;101536.94;;;6.75;69.19
78383;BME280;67668;52.294;4.692;2023-03-16T03:49:48;101535.97;;;6.76;68.88
78383;BME280;67668;52.294;4.692;2023-03-16T03:52:13;101532.53;;;6.76;69.21
78383;BME280;67668;52.294;4.692;2023-03-16T03:54:38;101523.78;;;6.75;69.40
78383;BME280;67668;52.294;4.692;2023-03-16T03:57:04;101531.69;;;6.75;69.51
78383;BME280;67668;52.294;4.692;2023-03-16T03:59:30;101529.06;;;6.75;69.80
78383;BME280;67668;52.294;4.692;2023-03-16T04:01:55;101519.47;;;6.74;70.65
78383;BME280;67668;52.294;4.692;2023-03-16T04:04:20;101518.63;;;6.74;70.04
78383;BME280;67668;52.294;4.692;2023-03-16T04:06:46;101517.03;;;6.71;70.42
78383;BME280;67668;52.294;4.692;2023-03-16T04:09:11;101519.69;;;6.71;70.06
78383;BME280;67668;52.294;4.692;2023-03-16T04:11:37;101510.09;;;6.70;70.86
78383;BME280;67668;52.294;4.692;2023-03-16T04:14:02;101505.69;;;6.71;70.90
78383;BME280;67668;52.294;4.692;2023-03-16T04:16:28;101509.25;;;6.70;70.71
78383;BME280;67668;52.294;4.692;2023-03-16T04:18:54;101502.41;;;6.67;70.89
78383;BME280;67668;52.294;4.692;2023-03-16T04:21:20;101513.84;;;6.66;71.38
78383;BME280;67668;52.294;4.692;2023-03-16T04:23:46;101510.28;;;6.67;70.95
78383;BME280;67668;52.294;4.692;2023-03-16T04:26:11;101497.06;;;6.69;71.21
78383;BME280;67668;52.294;4.692;2023-03-16T04:28:37;101496.94;;;6.70;71.00
78383;BME280;67668;52.294;4.692;2023-03-16T04:31:08;101499.78;;;6.67;71.66
78383;BME280;67668;52.294;4.692;2023-03-16T04:33:35;101487.66;;;6.65;71.83
78383;BME280;67668;52.294;4.692;2023-03-16T04:36:03;101494.72;;;6.64;71.93
78383;BME280;67668;52.294;4.692;2023-03-16T04:38:29;101485.13;;;6.63;71.13
78383;BME280;67668;52.294;4.692;2023-03-16T04:40:58;101487.13;;;6.60;71.97
78383;BME280;67668;52.294;4.692;2023-03-16T04:43:23;101488.94;;;6.59;71.77
78383;BME280;67668;52.294;4.692;2023-03-16T04:45:49;101487.03;;;6.61;71.93
78383;BME280;67668;52.294;4.692;2023-03-16T04:48:14;101483.56;;;6.61;72.02
78383;BME280;67668;52.294;4.692;2023-03-16T04:50:40;101480.84;;;6.62;71.71
78383;BME280;67668;52.294;4.692;2023-03-16T04:53:05;101480.06;;;6.60;72.54
78383;BME280;67668;52.294;4.692;2023-03-16T04:55:31;101480.72;;;6.64;71.92
78383;BME280;67668;52.294;4.692;2023-03-16T04:57:57;101483.47;;;6.62;72.58
78383;BME280;67668;52.294;4.692;2023-03-16T05:00:22;101486.09;;;6.62;72.15
78383;BME280;67668;52.294;4.692;2023-03-16T05:02:49;101484.47;;;6.60;72.37
78383;BME280;67668;52.294;4.692;2023-03-16T05:05:16;101481.84;;;6.60;72.46
78383;BME280;67668;52.294;4.692;2023-03-16T05:07:42;101489.66;;;6.61;73.16
78383;BME280;67668;52.294;4.692;2023-03-16T05:10:09;101479.97;;;6.62;73.52
78383;BME280;67668;52.294;4.692;2023-03-16T05:12:35;101484.19;;;6.64;73.36
78383;BME280;67668;52.294;4.692;2023-03-16T05:15:00;101485.03;;;6.65;73.07
78383;BME280;67668;52.294;4.692;2023-03-16T05:17:26;101474.53;;;6.65;72.72
78383;BME280;67668;52.294;4.692;2023-03-16T05:19:52;101462.31;;;6.64;73.83
78383;BME280;67668;52.294;4.692;2023-03-16T05:22:17;101466.84;;;6.62;74.09
78383;BME280;67668;52.294;4.692;2023-03-16T05:24:42;101456.31;;;6.62;74.10
78383;BME280;67668;52.294;4.692;2023-03-16T05:27:08;101454.75;;;6.59;73.96
78383;BME280;67668;52.294;4.692;2023-03-16T05:29:33;101453.03;;;6.58;73.95
78383;BME280;67668;52.294;4.692;2023-03-16T05:31:59;101439.78;;;6.60;74.67
78383;BME280;67668;52.294;4.692;2023-03-16T05:34:24;101442.41;;;6.60;74.51
78383;BME280;67668;52.294;4.692;2023-03-16T05:36:49;101446.00;;;6.59;74.70
78383;BME280;67668;52.294;4.692;2023-03-16T05:39:15;101446.84;;;6.59;74.64
78383;BME280;67668;52.294;4.692;2023-03-16T05:41:40;101445.16;;;6.58;74.82
78383;BME280;67668;52.294;4.692;2023-03-16T05:44:06;101444.22;;;6.59;74.25
78383;BME280;67668;52.294;4.692;2023-03-16T05:46:32;101448.63;;;6.59;74.42
78383;BME280;67668;52.294;4.692;2023-03-16T05:48:57;101443.56;;;6.56;75.08
78383;BME280;67668;52.294;4.692;2023-03-16T05:51:22;101440.09;;;6.55;74.74
78383;BME280;67668;52.294;4.692;2023-03-16T05:53:51;101437.47;;;6.55;75.21
78383;BME280;67668;52.294;4.692;2023-03-16T05:56:24;101441.03;;;6.54;74.86
78383;BME280;67668;52.294;4.692;2023-03-16T05:58:51;101440.94;;;6.56;75.01
78383;BME280;67668;52.294;4.692;2023-03-16T06:01:18;101447.34;;;6.52;75.61
78383;BME280;67668;52.294;4.692;2023-03-16T06:03:45;101435.97;;;6.51;75.43
78383;BME280;67668;52.294;4.692;2023-03-16T06:06:11;101441.31;;;6.50;75.20
78383;BME280;67668;52.294;4.692;2023-03-16T06:08:36;101440.38;;;6.51;75.28
78383;BME280;67668;52.294;4.692;2023-03-16T06:11:02;101435.25;;;6.49;75.67
78383;BME280;67668;52.294;4.692;2023-03-16T06:13:28;101445.78;;;6.49;74.76
78383;BME280;67668;52.294;4.692;2023-03-16T06:15:53;101446.59;;;6.50;75.83
78383;BME280;67668;52.294;4.692;2023-03-16T06:18:19;101431.78;;;6.49;75.38
78383;BME280;67668;52.294;4.692;2023-03-16T06:20:45;101428.28;;;6.48;75.97
78383;BME280;67668;52.294;4.692;2023-03-16T06:23:11;101432.63;;;6.49;76.00
78383;BME280;67668;52.294;4.692;2023-03-16T06:25:38;101423.75;;;6.50;75.50
78383;BME280;67668;52.294;4.692;2023-03-16T06:28:05;101414.22;;;6.49;76.39
78383;BME280;67668;52.294;4.692;2023-03-16T06:30:30;101424.72;;;6.49;76.21
78383;BME280;67668;52.294;4.692;2023-03-16T06:32:56;101417.66;;;6.50;75.59
78383;BME280;67668;52.294;4.692;2023-03-16T06:35:21;101413.38;;;6.49;75.89
78383;BME280;67668;52.294;4.692;2023-03-16T06:37:47;101413.38;;;6.49;76.40
78383;BME280;67668;52.294;4.692;2023-03-16T06:40:12;101403.78;;;6.48;76.32
78383;BME280;67668;52.294;4.692;2023-03-16T06:42:38;101401.28;;;6.46;75.91
78383;BME280;67668;52.294;4.692;2023-03-16T06:45:03;101401.28;;;6.46;76.25
78383;BME280;67668;52.294;4.692;2023-03-16T06:47:29;101406.53;;;6.46;75.74
78383;BME280;67668;52.294;4.692;2023-03-16T06:49:54;101413.66;;;6.44;75.60
78383;BME280;67668;52.294;4.692;2023-03-16T06:52:20;101408.41;;;6.44;75.71
78383;BME280;67668;52.294;4.692;2023-03-16T06:54:46;101396.09;;;6.45;75.97
78383;BME280;67668;52.294;4.692;2023-03-16T06:57:11;101415.22;;;6.47;75.32
78383;BME280;67668;52.294;4.692;2023-03-16T06:59:37;101398.66;;;6.46;75.79
78383;BME280;67668;52.294;4.692;2023-03-16T07:02:02;101409.25;;;6.45;76.07
78383;BME280;67668;52.294;4.692;2023-03-16T07:04:27;101397.03;;;6.44;75.95
78383;BME280;67668;52.294;4.692;2023-03-16T07:06:53;101407.56;;;6.44;76.28
78383;BME280;67668;52.294;4.692;2023-03-16T07:09:18;101401.44;;;6.43;75.58
78383;BME280;67668;52.294;4.692;2023-03-16T07:11:43;101393.47;;;6.45;76.38
78383;BME280;67668;52.294;4.692;2023-03-16T07:14:09;101394.41;;;6.44;76.08
78383;BME280;67668;52.294;4.692;2023-03-16T07:16:36;101388.41;;;6.42;75.77
78383;BME280;67668;52.294;4.692;2023-03-16T07:19:01;101393.69;;;6.42;75.82
78383;BME280;67668;52.294;4.692;2023-03-16T07:21:27;101381.38;;;6.42;76.23
78383;BME280;67668;52.294;4.692;2023-03-16T07:23:52;101396.31;;;6.42;76.12
78383;BME280;67668;52.294;4.692;2023-03-16T07:26:17;101396.19;;;6.43;75.63
78383;BME280;67668;52.294;4.692;2023-03-16T07:28:43;101399.78;;;6.42;76.67
78383;BME280;67668;52.294;4.692;2023-03-16T07:31:09;101406.72;;;6.43;76.44
78383;BME280;67668;52.294;4.692;2023-03-16T07:33:35;101401.56;;;6.42;76.24
78383;BME280;67668;52.294;4.692;2023-03-16T07:36:01;101405.03;;;6.42;76.00
78383;BME280;67668;52.294;4.692;2023-03-16T07:38:31;101405.03;;;6.42;76.43
78383;BME280;67668;52.294;4.692;2023-03-16T07:40:58;101390.13;;;6.43;76.86
78383;BME280;67668;52.294;4.692;2023-03-16T07:43:24;101408.41;;;6.44;76.64
78383;BME280;67668;52.294;4.692;2023-03-16T07:45:50;101400.63;;;6.43;76.08
78383;BME280;67668;52.294;4.692;2023-03-16T07:48:17;101390.13;;;6.43;76.23
78383;BME280;67668;52.294;4.692;2023-03-16T07:50:43;101385.66;;;6.43;76.16
78383;BME280;67668;52.294;4.692;2023-03-16T07:53:09;101382.97;;;6.45;76.66
78383;BME280;67668;52.294;4.692;2023-03-16T07:55:35;101401.28;;;6.46;76.19
78383;BME280;67668;52.294;4.692;2023-03-16T07:58:01;101390.56;;;6.49;75.81
78383;BME280;67668;52.294;4.692;2023-03-16T08:00:29;101392.22;;;6.50;75.91
78383;BME280;67668;52.294;4.692;2023-03-16T08:02:54;101392.00;;;6.53;75.83
78383;BME280;67668;52.294;4.692;2023-03-16T08:05:21;101393.81;;;6.53;75.32
78383;BME280;67668;52.294;4.692;2023-03-16T08:07:47;101396.34;;;6.54;75.18
78383;BME280;67668;52.294;4.692;2023-03-16T08:10:12;101406.63;;;6.57;75.56
78383;BME280;67668;52.294;4.692;2023-03-16T08:12:37;101418.84;;;6.58;75.63
78383;BME280;67668;52.294;4.692;2023-03-16T08:15:03;101403.81;;;6.60;74.99
78383;BME280;67668;52.294;4.692;2023-03-16T08:17:30;101411.59;;;6.62;75.16
78383;BME280;67668;52.294;4.692;2023-03-16T08:19:56;101405.28;;;6.64;75.29
78383;BME280;67668;52.294;4.692;2023-03-16T08:22:21;101402.66;;;6.64;75.12
78383;BME280;67668;52.294;4.692;2023-03-16T08:24:46;101415.59;;;6.67;74.84
78383;BME280;67668;52.294;4.692;2023-03-16T08:27:13;101407.50;;;6.70;74.76
78383;BME280;67668;52.294;4.692;2023-03-16T08:29:40;101411.81;;;6.71;74.36
78383;BME280;67668;52.294;4.692;2023-03-16T08:32:05;101408.25;;;6.72;74.70
78383;BME280;67668;52.294;4.692;2023-03-16T08:34:31;101403.72;;;6.74;74.29
78383;BME280;67668;52.294;4.692;2023-03-16T08:36:56;101393.94;;;6.76;73.80
78383;BME280;67668;52.294;4.692;2023-03-16T08:39:24;101400.88;;;6.78;75.11
78383;BME280;67668;52.294;4.692;2023-03-16T08:41:50;101385.00;;;6.79;74.48
78383;BME280;67668;52.294;4.692;2023-03-16T08:44:16;101390.16;;;6.81;74.04
78383;BME280;67668;52.294;4.692;2023-03-16T08:46:41;101385.75;;;6.81;74.11
78383;BME280;67668;52.294;4.692;2023-03-16T08:49:07;101385.75;;;6.81;74.39
78383;BME280;67668;52.294;4.692;2023-03-16T08:51:32;101373.22;;;6.85;73.93
78383;BME280;67668;52.294;4.692;2023-03-16T08:53:58;101374.91;;;6.86;73.85
78383;BME280;67668;52.294;4.692;2023-03-16T08:56:24;101375.63;;;6.88;73.64
78383;BME280;67668;52.294;4.692;2023-03-16T08:58:49;101385.09;;;6.90;73.23
78383;BME280;67668;52.294;4.692;2023-03-16T09:01:16;101377.13;;;6.92;73.43
78383;BME280;67668;52.294;4.692;2023-03-16T09:03:45;101379.63;;;6.93;73.86
78383;BME280;67668;52.294;4.692;2023-03-16T09:06:14;101382.16;;;6.95;73.00
78383;BME280;67668;52.294;4.692;2023-03-16T09:08:40;101374.28;;;6.95;73.55
78383;BME280;67668;52.294;4.692;2023-03-16T09:11:09;101373.34;;;6.96;73.32
78383;BME280;67668;52.294;4.692;2023-03-16T09:13:35;101383.88;;;6.96;72.34
78383;BME280;67668;52.294;4.692;2023-03-16T09:16:03;101358.28;;;6.98;72.99
78383;BME280;67668;52.294;4.692;2023-03-16T09:18:30;101359.00;;;7.00;72.88
78383;BME280;67668;52.294;4.692;2023-03-16T09:20:58;101351.00;;;7.01;72.92
78383;BME280;67668;52.294;4.692;2023-03-16T09:23:24;101351.75;;;7.03;72.93
78383;BME280;67668;52.294;4.692;2023-03-16T09:25:50;101357.75;;;7.05;72.96
78383;BME280;67668;52.294;4.692;2023-03-16T09:28:16;101363.53;;;7.10;72.90
78383;BME280;67668;52.294;4.692;2023-03-16T09:30:41;101357.94;;;7.15;73.14
78383;BME280;67668;52.294;4.692;2023-03-16T09:33:07;101358.69;;;7.17;72.62
78383;BME280;67668;52.294;4.692;2023-03-16T09:35:33;101364.69;;;7.19;72.25
78383;BME280;67668;52.294;4.692;2023-03-16T09:37:58;101367.84;;;7.24;72.84
78383;BME280;67668;52.294;4.692;2023-03-16T09:40:25;101360.56;;;7.27;71.92
78383;BME280;67668;52.294;4.692;2023-03-16T09:48:32;101359.16;;;7.47;71.70
78383;BME280;67668;52.294;4.692;2023-03-16T09:51:00;101353.44;;;7.53;71.60
78383;BME280;67668;52.294;4.692;2023-03-16T09:53:33;101345.22;;;7.58;71.42
78383;BME280;67668;52.294;4.692;2023-03-16T09:56:11;101342.84;;;7.66;71.59
78383;BME280;67668;52.294;4.692;2023-03-16T09:58:39;101355.50;;;7.73;70.44
78383;BME280;67668;52.294;4.692;2023-03-16T10:03:49;101328.97;;;7.88;70.61
78383;BME280;67668;52.294;4.692;2023-03-16T10:06:21;101346.53;;;8.00;69.49
78383;BME280;67668;52.294;4.692;2023-03-16T10:08:59;101349.53;;;8.06;70.69
78383;BME280;67668;52.294;4.692;2023-03-16T10:16:25;101329.31;;;8.30;68.71
78383;BME280;67668;52.294;4.692;2023-03-16T10:19:22;101339.28;;;8.38;68.17
78383;BME280;67668;52.294;4.692;2023-03-16T10:21:55;101330.91;;;8.44;68.80
78383;BME280;67668;52.294;4.692;2023-03-16T10:27:06;101326.38;;;8.57;67.31
78383;BME280;67668;52.294;4.692;2023-03-16T10:29:38;101325.81;;;8.65;67.09
78383;BME280;67668;52.294;4.692;2023-03-16T10:32:11;101331.44;;;8.71;67.67
78383;BME280;67668;52.294;4.692;2023-03-16T10:34:38;101303.59;;;8.78;67.26
78383;BME280;67668;52.294;4.692;2023-03-16T10:37:04;101305.66;;;8.86;66.71
78383;BME280;67668;52.294;4.692;2023-03-16T10:39:36;101298.00;;;8.94;66.25
78383;BME280;67668;52.294;4.692;2023-03-16T10:42:13;101301.69;;;9.03;65.13
78383;BME280;67668;52.294;4.692;2023-03-16T10:44:40;101289.59;;;9.11;66.33
78383;BME280;67668;52.294;4.692;2023-03-16T10:47:06;101283.94;;;9.16;64.69
78383;BME280;67668;52.294;4.692;2023-03-16T10:49:40;101282.72;;;9.20;64.67
78383;BME280;67668;52.294;4.692;2023-03-16T10:54:59;101269.97;;;9.36;65.32
78383;BME280;67668;52.294;4.692;2023-03-16T10:57:32;101280.88;;;9.43;65.08
78383;BME280;67668;52.294;4.692;2023-03-16T11:00:05;101287.47;;;9.48;63.52
78383;BME280;67668;52.294;4.692;2023-03-16T11:02:36;101277.38;;;9.53;63.80
78383;BME280;67668;52.294;4.692;2023-03-16T11:07:57;101272.63;;;9.68;63.14
78383;BME280;67668;52.294;4.692;2023-03-16T11:10:33;101268.78;;;9.72;62.92
78383;BME280;67668;52.294;4.692;2023-03-16T11:13:12;101268.53;;;9.75;63.53
78383;BME280;67668;52.294;4.692;2023-03-16T11:16:00;101269.84;;;9.80;62.83
78383;BME280;67668;52.294;4.692;2023-03-16T11:18:34;101257.81;;;9.88;62.19
78383;BME280;67668;52.294;4.692;2023-03-16T11:21:04;101260.78;;;9.94;61.89
78383;BME280;67668;52.294;4.692;2023-03-16T11:23:33;101257.47;;;10.02;61.22
78383;BME280;67668;52.294;4.692;2023-03-16T11:26:06;101267.53;;;10.08;62.21
78383;BME280;67668;52.294;4.692;2023-03-16T11:28:41;101254.66;;;10.14;61.37
78383;BME280;67668;52.294;4.692;2023-03-16T11:31:18;101263.66;;;10.23;61.66
78383;BME280;67668;52.294;4.692;2023-03-16T11:33:46;101269.38;;;10.28;60.31
78383;BME280;67668;52.294;4.692;2023-03-16T11:36:23;101262.75;;;10.33;60.59
78383;BME280;67668;52.294;4.692;2023-03-16T11:42:08;101254.03;;;10.43;59.91
78383;BME280;67668;52.294;4.692;2023-03-16T11:45:22;101244.03;;;10.46;60.10
78383;BME280;67668;52.294;4.692;2023-03-16T11:47:49;101240.16;;;10.50;59.11
78383;BME280;67668;52.294;4.692;2023-03-16T11:50:36;101245.19;;;10.53;58.57
78383;BME280;67668;52.294;4.692;2023-03-16T11:56:32;101253.16;;;10.63;59.05
78383;BME280;67668;52.294;4.692;2023-03-16T11:58:59;101250.38;;;10.64;58.09
78383;BME280;67668;52.294;4.692;2023-03-16T12:01:43;101250.84;;;10.69;58.75
78383;BME280;67668;52.294;4.692;2023-03-16T12:12:33;101241.69;;;10.83;58.52
78383;BME280;67668;52.294;4.692;2023-03-16T12:17:34;101228.03;;;10.87;55.29
78383;BME280;67668;52.294;4.692;2023-03-16T12:20:15;101236.00;;;10.97;57.42
78383;BME280;67668;52.294;4.692;2023-03-16T12:22:45;101231.16;;;11.02;56.24
78383;BME280;67668;52.294;4.692;2023-03-16T12:25:28;101223.34;;;11.10;57.41
78383;BME280;67668;52.294;4.692;2023-03-16T12:27:59;101221.03;;;11.17;56.56
78383;BME280;67668;52.294;4.692;2023-03-16T12:31:06;101203.75;;;11.22;57.28
78383;BME280;67668;52.294;4.692;2023-03-16T12:33:46;101196.38;;;11.26;55.85
78383;BME280;67668;52.294;4.692;2023-03-16T12:39:23;101185.38;;;11.40;55.55
78383;BME280;67668;52.294;4.692;2023-03-16T12:49:39;101158.69;;;11.61;54.56
78383;BME280;67668;52.294;4.692;2023-03-16T12:52:10;101157.31;;;11.66;55.02
78383;BME280;67668;52.294;4.692;2023-03-16T12:55:05;101160.13;;;11.74;55.31
78383;BME280;67668;52.294;4.692;2023-03-16T12:57:31;101151.59;;;11.80;55.24
78383;BME280;67668;52.294;4.692;2023-03-16T13:00:00;101156.31;;;11.86;54.94
78383;BME280;67668;52.294;4.692;2023-03-16T13:04:57;101149.19;;;11.97;54.72
78383;BME280;67668;52.294;4.692;2023-03-16T13:07:26;101155.59;;;12.04;54.00
78383;BME280;67668;52.294;4.692;2023-03-16T13:10:07;101140.94;;;12.09;53.25
78383;BME280;67668;52.294;4.692;2023-03-16T13:12:35;101141.19;;;12.16;53.97
78383;BME280;67668;52.294;4.692;2023-03-16T13:20:36;101135.41;;;12.30;53.29
78383;BME280;67668;52.294;4.692;2023-03-16T13:28:27;101128.66;;;12.45;52.21
78383;BME280;67668;52.294;4.692;2023-03-16T13:30:54;101131.69;;;12.50;52.84
78383;BME280;67668;52.294;4.692;2023-03-16T13:33:24;101120.94;;;12.52;51.75
78383;BME280;67668;52.294;4.692;2023-03-16T13:35:52;101125.09;;;12.54;52.10
78383;BME280;67668;52.294;4.692;2023-03-16T13:38:20;101128.59;;;12.55;51.82
78383;BME280;67668;52.294;4.692;2023-03-16T13:40:54;101115.16;;;12.56;51.56
78383;BME280;67668;52.294;4.692;2023-03-16T13:43:27;101122.03;;;12.59;52.23
78383;BME280;67668;52.294;4.692;2023-03-16T13:45:57;101120.88;;;12.61;51.55
78383;BME280;67668;52.294;4.692;2023-03-16T13:48:23;101119.59;;;12.65;51.99
78383;BME280;67668;52.294;4.692;2023-03-16T13:50:54;101120.28;;;12.67;52.25
78383;BME280;67668;52.294;4.692;2023-03-16T13:53:24;101105.88;;;12.70;52.04
78383;BME280;67668;52.294;4.692;2023-03-16T13:55:53;101104.75;;;12.72;51.29
78383;BME280;67668;52.294;4.692;2023-03-16T13:58:27;101100.13;;;12.74;50.60
78383;BME280;67668;52.294;4.692;2023-03-16T14:00:58;101083.88;;;12.77;50.69
78383;BME280;67668;52.294;4.692;2023-03-16T14:03:34;101086.22;;;12.80;51.31
78383;BME280;67668;52.294;4.692;2023-03-16T14:06:01;101081.91;;;12.79;51.84
78383;BME280;67668;52.294;4.692;2023-03-16T14:08:28;101071.28;;;12.79;50.98
78383;BME280;67668;52.294;4.692;2023-03-16T14:10:54;101075.63;;;12.80;49.58
78383;BME280;67668;52.294;4.692;2023-03-16T14:15:56;101071.69;;;12.84;49.03
78383;BME280;67668;52.294;4.692;2023-03-16T14:18:29;101067.88;;;12.87;49.33
78383;BME280;67668;52.294;4.692;2023-03-16T14:20:56;101075.84;;;12.87;49.49
78383;BME280;67668;52.294;4.692;2023-03-16T14:23:29;101074.03;;;12.87;49.01